Time;durP1;ratioP1;P1;durP2;ratioP2;P2;SDS_P1;SDS_P2;PMS_P1;PMS_P2;Temp;Humidity;BMP_temperature;BMP_pressure;BME280_temperature;BME280_humidity;BME280_pressure;Samples;Min_cycle;Max_cycle;Signal;HPM_P1;HPM_P2
2021/06/25 00:03:33;;;;;;;;;;;16.60;99.90;;;15.70;97.63;95982.53;10465771;28;2238;-81
2021/06/25 00:08:36;;;;;;;;;;;16.60;99.90;;;15.61;97.61;95977.78;10466461;28;2265;-80
2021/06/25 00:13:38;;;;;;;;;;;16.60;99.90;;;15.56;98.26;95975.19;10492299;28;1982;-80
2021/06/25 00:18:41;;;;;;;;;;;16.50;99.90;;;15.59;98.31;95969.16;10491952;28;2048;-81
2021/06/25 00:23:44;;;;;;;;;;;16.50;99.90;;;15.52;98.44;95967.94;10492259;28;1997;-82
2021/06/25 00:28:47;;;;;;;;;;;16.40;99.90;;;15.38;99.45;95967.94;10453016;28;2050;-80
2021/06/25 00:33:49;;;;;;;;;;;16.40;99.90;;;15.22;100.00;95963.91;10451755;28;2143;-80
2021/06/25 00:38:52;;;;;;;;;;;16.30;99.90;;;15.21;100.00;95970.44;10453523;28;2006;-80
2021/06/25 00:43:55;;;;;;;;;;;16.20;99.90;;;15.44;99.66;95977.56;10460835;28;2067;-81
2021/06/25 00:48:57;;;;;;;;;;;16.20;99.90;;;15.14;100.00;95979.75;10464208;28;1987;-81
2021/06/25 00:54:00;;;;;;;;;;;16.20;99.90;;;14.86;100.00;95983.44;10435914;28;2062;-81
2021/06/25 00:59:03;;;;;;;;;;;15.90;99.90;;;14.75;100.00;95987.41;10475189;28;2067;-80
2021/06/25 01:04:06;;;;;;;;;;;15.70;99.90;;;14.96;100.00;95982.50;10456073;28;2079;-80
2021/06/25 01:09:09;;;;;;;;;;;15.70;99.90;;;14.95;100.00;95986.28;10459819;28;2231;-80
2021/06/25 01:14:12;;;;;;;;;;;15.80;99.90;;;14.99;100.00;95990.00;10442582;28;2174;-81
2021/06/25 01:19:14;;;;;;;;;;;15.80;99.90;;;14.97;100.00;95984.91;10452982;28;2170;-81
2021/06/25 01:24:17;;;;;;;;;;;15.90;99.90;;;15.03;100.00;95993.75;10452847;28;2094;-80
2021/06/25 01:29:20;;;;;;;;;;;15.90;99.90;;;15.04;100.00;95985.31;10462088;28;2271;-79
2021/06/25 01:34:23;;;;;;;;;;;15.90;99.90;;;14.95;100.00;95979.00;10457850;28;2106;-80
2021/06/25 01:39:26;;;;;;;;;;;15.90;99.90;;;15.02;99.29;95975.91;10459019;28;2116;-80
2021/06/25 01:44:28;;;;;;;;;;;15.80;99.90;;;14.73;100.00;95978.78;10454695;28;2108;-80
2021/06/25 01:49:31;;;;;;;;;;;15.80;99.90;;;14.70;100.00;95965.88;10451846;28;2074;-78
2021/06/25 01:54:34;;;;;;;;;;;15.70;99.90;;;14.44;100.00;95966.22;10464035;28;2114;-79
2021/06/25 01:59:37;;;;;;;;;;;15.50;99.90;;;14.41;100.00;95974.09;10461952;28;2135;-81
2021/06/25 02:04:40;;;;;;;;;;;15.40;99.90;;;14.40;100.00;95973.31;10456921;28;2117;-78
2021/06/25 02:09:42;;;;;;;;;;;15.40;99.90;;;14.47;100.00;95967.56;10463039;28;2071;-80
2021/06/25 02:14:45;;;;;;;;;;;15.40;99.90;;;14.38;100.00;95967.41;10458879;28;2133;-80
2021/06/25 02:19:48;;;;;;;;;;;15.30;99.90;;;14.32;100.00;95963.16;10444711;28;2163;-80
2021/06/25 02:24:50;;;;;;;;;;;15.30;99.90;;;14.29;100.00;95964.53;10442851;28;2065;-81
2021/06/25 02:29:53;;;;;;;;;;;15.30;99.90;;;14.35;100.00;95962.56;10453419;28;2071;-81
2021/06/25 02:34:56;;;;;;;;;;;15.20;99.90;;;14.35;100.00;95965.25;10444901;28;2099;-80
2021/06/25 02:39:59;;;;;;;;;;;15.30;99.90;;;14.17;100.00;95966.06;10440996;28;2234;-81
2021/06/25 02:45:02;;;;;;;;;;;15.20;99.90;;;14.21;100.00;95967.09;10459107;28;2103;-80
2021/06/25 02:50:04;;;;;;;;;;;15.20;99.90;;;14.14;100.00;95969.34;10471975;28;2435;-80
2021/06/25 02:55:07;;;;;;;;;;;15.20;99.90;;;14.06;100.00;95958.09;10481582;28;2083;-80
2021/06/25 03:00:10;;;;;;;;;;;15.10;99.90;;;14.07;100.00;95954.31;10484306;28;2218;-80
2021/06/25 03:05:13;;;;;;;;;;;15.10;99.90;;;13.97;100.00;95946.31;10490646;28;2042;-80
2021/06/25 03:10:15;;;;;;;;;;;15.00;99.90;;;13.90;100.00;95950.47;10450539;28;2112;-81
2021/06/25 03:15:18;;;;;;;;;;;15.00;99.90;;;13.99;100.00;95948.72;10459250;28;2113;-81
2021/06/25 03:20:21;;;;;;;;;;;15.00;99.90;;;14.03;100.00;95944.34;10438605;28;2095;-81
2021/06/25 03:25:23;;;;;;;;;;;15.00;99.90;;;13.99;100.00;95938.72;10447121;28;2158;-80
2021/06/25 03:30:26;;;;;;;;;;;15.00;99.90;;;14.04;100.00;95941.34;10468275;28;2205;-81
2021/06/25 03:35:30;;;;;;;;;;;15.00;99.90;;;14.07;100.00;95951.59;10477901;28;2065;-79
2021/06/25 03:40:32;;;;;;;;;;;15.00;99.90;;;13.94;100.00;95951.50;10491504;28;1850;-81
2021/06/25 03:45:36;;;;;;;;;;;15.00;99.90;;;13.94;100.00;95946.91;10490477;28;2257;-80
2021/06/25 03:50:39;;;;;;;;;;;15.00;99.90;;;13.97;100.00;95935.50;10448129;28;2039;-80
2021/06/25 03:56:09;;;;;;;;;;;15.00;99.90;;;13.89;100.00;95946.16;10450820;28;2071;-82
2021/06/25 04:01:04;;;;;;;;;;;14.90;99.90;;;13.88;100.00;95953.47;10470633;28;2051;-80
2021/06/25 04:06:07;;;;;;;;;;;15.00;99.90;;;13.92;100.00;95951.78;10435561;28;2225;-81
2021/06/25 04:11:10;;;;;;;;;;;14.90;99.90;;;14.28;100.00;95948.59;10468267;28;2064;-83
2021/06/25 04:16:12;;;;;;;;;;;15.10;99.90;;;14.18;100.00;95952.25;10450267;28;2002;-82
2021/06/25 04:21:35;;;;;;;;;;;15.20;99.90;;;14.15;100.00;95957.44;10461970;28;2038;-80
2021/06/25 04:26:38;;;;;;;;;;;15.20;99.90;;;14.19;100.00;95958.47;10463053;28;2147;-81
2021/06/25 04:31:44;;;;;;;;;;;15.20;99.90;;;14.32;99.93;95952.34;10467138;28;2057;-81
2021/06/25 04:36:46;;;;;;;;;;;15.20;99.90;;;14.38;99.83;95961.16;10463637;28;2130;-80
2021/06/25 04:41:49;;;;;;;;;;;15.30;99.90;;;14.54;98.82;95957.16;10444833;28;2091;-79
2021/06/25 04:46:52;;;;;;;;;;;15.40;99.90;;;14.66;97.74;95960.22;10490682;28;1807;-80
2021/06/25 04:51:55;;;;;;;;;;;15.50;99.90;;;14.69;98.30;95951.50;10444630;28;2008;-81
2021/06/25 04:56:58;;;;;;;;;;;15.60;99.90;;;14.79;96.67;95953.25;10470774;28;2225;-83
2021/06/25 05:02:01;;;;;;;;;;;15.70;99.90;;;15.05;96.02;95959.03;10467743;28;2095;-82
2021/06/25 05:07:04;;;;;;;;;;;15.80;99.90;;;15.17;94.02;95945.84;10463750;28;2205;-79
2021/06/25 05:12:06;;;;;;;;;;;16.00;99.90;;;15.28;92.82;95947.28;10469690;28;2278;-82
2021/06/25 05:17:09;;;;;;;;;;;16.00;99.90;;;15.38;91.56;95951.69;10452055;28;2407;-81
2021/06/25 05:22:12;;;;;;;;;;;16.10;99.90;;;15.98;88.00;95938.06;10444108;28;2047;-82
2021/06/25 05:27:15;;;;;;;;;;;16.40;99.90;;;16.25;87.60;95942.63;10447745;28;2216;-81
2021/06/25 05:32:17;;;;;;;;;;;16.80;99.90;;;16.87;82.68;95936.59;10447151;28;2044;-81
2021/06/25 05:37:20;;;;;;;;;;;17.40;99.90;;;16.97;82.91;95944.47;10444195;28;2033;-82
2021/06/25 05:42:27;;;;;;;;;;;17.60;99.90;;;17.16;81.87;95934.19;10442764;28;2056;-81
2021/06/25 05:47:30;;;;;;;;;;;17.80;99.90;;;16.86;81.66;95937.69;10482534;28;2089;-80
2021/06/25 05:52:33;;;;;;;;;;;17.80;99.90;;;16.93;82.66;95935.38;10437544;28;2111;-80
2021/06/25 05:57:35;;;;;;;;;;;17.70;99.90;;;17.13;81.91;95936.75;10458571;28;2155;-79
2021/06/25 06:02:38;;;;;;;;;;;17.80;99.90;;;17.43;78.79;95941.38;10456083;28;2086;-80
2021/06/25 06:07:41;;;;;;;;;;;18.00;99.90;;;17.36;80.00;95937.50;10441521;28;2044;-79
2021/06/25 06:12:43;;;;;;;;;;;18.10;99.90;;;17.51;79.71;95945.25;10437100;28;2171;-80
2021/06/25 06:17:48;;;;;;;;;;;18.10;99.90;;;17.58;78.56;95945.59;10459344;28;2407;-79
2021/06/25 06:33:35;;;;;;;;;;;18.20;99.90;;;17.28;79.71;95939.84;10457717;28;2199;-79
2021/06/25 06:38:38;;;;;;;;;;;18.00;99.90;;;17.44;78.05;95939.47;10448974;28;2179;-77
2021/06/25 06:43:41;;;;;;;;;;;18.00;99.90;;;18.52;74.49;95946.97;10449083;28;2123;-78
2021/06/25 06:48:44;;;;;;;;;;;18.70;99.90;;;18.81;71.11;95935.44;10450703;28;2045;-77
2021/06/25 06:53:47;;;;;;;;;;;19.30;99.90;;;18.79;70.59;95943.13;10459541;28;2053;-83
2021/06/25 06:58:51;;;;;;;;;;;19.40;99.90;;;18.61;69.13;95947.75;10479615;28;2089;-82
2021/06/25 07:03:54;;;;;;;;;;;19.40;99.90;;;19.40;69.04;95943.81;10490414;28;1187;-81
2021/06/25 07:08:57;;;;;;;;;;;19.80;99.90;;;19.75;68.40;95949.16;10474111;28;1625;-80
2021/06/25 07:13:59;;;;;;;;;;;20.20;99.90;;;19.95;63.81;95953.88;10481846;28;2064;-79
2021/06/25 07:19:02;;;;;;;;;;;20.40;99.90;;;20.34;63.51;95949.13;10475483;28;2010;-78
2021/06/25 07:24:05;;;;;;;;;;;20.70;99.90;;;19.47;64.67;95954.22;10461742;28;1534;-80
2021/06/25 07:29:09;;;;;;;;;;;20.40;99.90;;;19.05;66.02;95953.19;10492416;28;1731;-79
2021/06/25 07:34:12;;;;;;;;;;;19.90;99.90;;;19.50;64.06;95950.81;10466410;28;2244;-80
2021/06/25 07:39:15;;;;;;;;;;;20.00;99.90;;;21.12;59.49;95939.53;10453332;28;2103;-82
2021/06/25 07:44:18;;;;;;;;;;;21.10;99.90;;;20.40;60.45;95934.16;10477198;28;2179;-81
2021/06/25 07:49:20;;;;;;;;;;;21.20;99.90;;;20.08;61.21;95945.78;10480265;28;2368;-82
2021/06/25 07:54:23;;;;;;;;;;;20.70;99.90;;;19.85;62.28;95937.88;10453169;28;2065;-81
2021/06/25 07:59:26;;;;;;;;;;;20.50;99.90;;;19.80;62.39;95927.16;10465415;28;2218;-81
2021/06/25 08:04:30;;;;;;;;;;;20.50;99.90;;;19.24;64.36;95937.28;10448530;28;2024;-81
2021/06/25 08:09:33;;;;;;;;;;;20.10;99.90;;;19.07;66.12;95942.75;10482615;28;1766;-80
2021/06/25 08:14:36;;;;;;;;;;;19.80;99.90;;;18.59;66.36;95941.03;10480382;28;2103;-81
2021/06/25 08:19:38;;;;;;;;;;;19.50;99.90;;;18.55;65.93;95935.41;10456063;28;2033;-80
2021/06/25 08:24:41;;;;;;;;;;;19.30;99.90;;;18.51;65.58;95942.63;10484468;28;2059;-82
2021/06/25 08:29:44;;;;;;;;;;;19.30;99.90;;;18.83;65.50;95946.81;10493720;28;2167;-81
2021/06/25 08:34:47;;;;;;;;;;;19.20;99.90;;;19.75;62.11;95937.44;10485059;28;2092;-79
2021/06/25 08:39:49;;;;;;;;;;;20.00;99.90;;;20.85;58.99;95930.78;10459212;28;2105;-81
2021/06/25 08:44:52;;;;;;;;;;;20.70;99.90;;;21.41;56.93;95924.94;10498415;28;2210;-80
2021/06/25 08:49:55;;;;;;;;;;;21.40;99.90;;;22.13;55.01;95929.66;10499259;28;2045;-79
2021/06/25 08:54:58;;;;;;;;;;;22.10;99.90;;;22.08;54.15;95926.34;10492341;28;2002;-81
2021/06/25 09:00:01;;;;;;;;;;;22.50;99.90;;;21.98;52.69;95919.38;10482002;28;2053;-81
2021/06/25 09:05:11;;;;;;;;;;;22.50;99.90;;;22.01;51.67;95924.19;10453156;28;2111;-82
2021/06/25 09:10:15;;;;;;;;;;;22.50;99.90;;;22.26;49.93;95915.97;10451761;28;2123;-81
2021/06/25 09:15:18;;;;;;;;;;;22.80;99.90;;;21.52;53.12;95926.09;10452710;28;2155;-81
2021/06/25 09:20:20;;;;;;;;;;;22.30;99.90;;;22.43;51.44;95926.66;10460615;28;2108;-81
2021/06/25 09:25:23;;;;;;;;;;;22.70;99.90;;;22.30;50.00;95927.81;10457563;28;2103;-82
2021/06/25 09:30:26;;;;;;;;;;;22.90;99.90;;;22.09;50.59;95927.97;10443223;28;2081;-82
2021/06/25 09:35:29;;;;;;;;;;;22.70;99.90;;;22.88;50.90;95928.38;10448373;28;2100;-84
2021/06/25 09:40:32;;;;;;;;;;;23.10;99.90;;;23.18;50.32;95923.34;10449967;28;2085;-84
2021/06/25 09:45:36;;;;;;;;;;;23.50;99.90;;;23.20;48.47;95921.81;10426789;28;2116;-82
2021/06/25 09:50:39;;;;;;;;;;;23.80;99.90;;;23.09;44.86;95920.72;10451672;28;2078;-82
2021/06/25 09:55:54;;;;;;;;;;;23.90;99.90;;;23.34;48.62;95906.88;10449893;28;2009;-81
2021/06/25 10:06:17;;;;;;;;;;;24.10;99.90;;;23.46;48.01;95895.84;10452614;28;2158;-79
2021/06/25 10:11:19;;;;;;;;;;;24.20;99.90;;;23.61;46.72;95899.75;10447719;28;2207;-81
2021/06/25 10:16:22;;;;;;;;;;;24.20;99.90;;;23.29;47.13;95897.00;10455297;28;2091;-80
2021/06/25 10:21:25;;;;;;;;;;;23.90;99.90;;;22.60;49.77;95909.16;10469618;28;2273;-79
2021/06/25 10:26:33;;;;;;;;;;;23.50;99.90;;;22.30;49.83;95897.69;10498997;28;2281;-80
2021/06/25 10:31:35;;;;;;;;;;;23.10;99.90;;;22.90;49.88;95895.91;10440120;28;2135;-78
2021/06/25 10:36:38;;;;;;;;;;;23.30;99.90;;;22.34;48.00;95901.34;10434424;28;2416;-79
2021/06/25 10:41:41;;;;;;;;;;;23.50;99.90;;;22.48;47.84;95896.28;10455929;28;2160;-81
2021/06/25 10:46:46;;;;;;;;;;;23.80;99.90;;;23.69;44.69;95905.09;10454986;28;2049;-80
2021/06/25 10:51:50;;;;;;;;;;;25.00;99.90;;;23.75;46.78;95882.88;10453756;28;2164;-81
2021/06/25 10:56:58;;;;;;;;;;;25.00;99.90;;;25.26;42.43;95872.78;10433249;28;2174;-80
2021/06/25 11:02:01;;;;;;;;;;;26.60;99.90;;;24.48;43.97;95880.22;10454655;28;2109;-81
2021/06/25 11:07:05;;;;;;;;;;;26.50;99.90;;;23.72;46.28;95889.84;10436199;28;2081;-80
2021/06/25 11:12:08;;;;;;;;;;;25.60;99.90;;;23.99;46.55;95871.69;10477661;28;2042;-79
2021/06/25 11:17:11;;;;;;;;;;;25.00;99.90;;;23.46;46.51;95876.63;10460689;28;2133;-81
2021/06/25 11:22:14;;;;;;;;;;;25.00;99.90;;;23.30;46.44;95875.84;10434749;28;2135;-79
2021/06/25 11:27:16;;;;;;;;;;;24.50;99.90;;;22.98;47.35;95875.81;10462402;28;2088;-79
2021/06/25 11:32:19;;;;;;;;;;;24.30;99.90;;;22.54;49.77;95878.47;10443489;28;2235;-78
2021/06/25 11:37:22;;;;;;;;;;;23.60;99.90;;;22.74;51.01;95875.88;10461483;28;2354;-80
2021/06/25 11:42:26;;;;;;;;;;;23.40;99.90;;;22.46;49.45;95875.84;10457934;28;2111;-80
2021/06/25 11:47:30;;;;;;;;;;;23.40;99.90;;;22.95;48.95;95879.22;10467855;28;2076;-81
2021/06/25 11:52:33;;;;;;;;;;;23.60;99.90;;;24.16;46.69;95865.78;10482434;28;2171;-79
2021/06/25 11:57:36;;;;;;;;;;;24.40;99.90;;;24.63;44.22;95853.84;10468185;28;2075;-82
2021/06/25 12:02:39;;;;;;;;;;;25.30;99.90;;;23.52;45.93;95852.47;10473606;28;2125;-79
2021/06/25 12:07:41;;;;;;;;;;;24.80;99.90;;;24.03;46.55;95844.28;10488012;28;2202;-78
2021/06/25 12:12:44;;;;;;;;;;;24.60;99.90;;;23.49;45.45;95840.28;10498303;28;2186;-78
2021/06/25 12:17:47;;;;;;;;;;;24.60;99.90;;;23.94;43.85;95825.28;10473442;28;2437;-80
2021/06/25 12:22:49;;;;;;;;;;;24.60;99.90;;;24.20;42.54;95841.16;10489075;28;1675;-79
2021/06/25 12:27:52;;;;;;;;;;;25.00;99.90;;;23.82;42.80;95847.34;10496408;28;2057;-80
2021/06/25 12:32:55;;;;;;;;;;;24.80;99.90;;;23.87;42.84;95838.84;10498063;28;2050;-82
2021/06/25 12:37:58;;;;;;;;;;;24.60;99.90;;;23.96;43.45;95828.44;10492924;28;2054;-79
2021/06/25 12:43:00;;;;;;;;;;;24.70;99.90;;;25.12;43.47;95844.97;10491326;28;1796;-80
2021/06/25 12:48:03;;;;;;;;;;;25.20;99.90;;;25.23;42.98;95836.94;10497271;28;1925;-81
2021/06/25 12:53:06;;;;;;;;;;;25.80;99.90;;;24.84;44.50;95841.69;10475733;28;1926;-79
2021/06/25 12:58:08;;;;;;;;;;;25.70;99.90;;;24.75;43.48;95841.94;10484831;28;2060;-81
2021/06/25 13:03:11;;;;;;;;;;;25.30;99.90;;;23.97;44.19;95844.56;10466351;28;1955;-78
2021/06/25 13:08:14;;;;;;;;;;;25.10;99.90;;;24.17;43.87;95837.16;10463446;28;2230;-82
2021/06/25 13:13:17;;;;;;;;;;;24.90;99.90;;;23.73;43.24;95840.13;10472933;28;1841;-82
2021/06/25 13:18:20;;;;;;;;;;;24.60;99.90;;;23.69;44.68;95838.44;10485771;28;1912;-80
2021/06/25 13:23:22;;;;;;;;;;;24.60;99.90;;;23.17;47.70;95828.50;10464006;28;1906;-80
2021/06/25 13:28:25;;;;;;;;;;;24.20;99.90;;;23.50;48.30;95841.06;10489006;28;1963;-83
2021/06/25 13:33:28;;;;;;;;;;;25.10;99.90;;;22.99;49.64;95844.50;10485909;28;2045;-79
2021/06/25 13:38:31;;;;;;;;;;;24.00;99.90;;;23.47;48.81;95837.06;10482947;28;1910;-78
2021/06/25 13:43:33;;;;;;;;;;;24.00;99.90;;;23.79;47.14;95837.06;10484417;28;1970;-80
2021/06/25 13:48:36;;;;;;;;;;;24.50;99.90;;;23.28;46.71;95834.25;10481486;28;2084;-80
2021/06/25 13:53:39;;;;;;;;;;;24.30;99.90;;;23.01;48.02;95841.41;10478799;28;1995;-82
2021/06/25 13:58:42;;;;;;;;;;;24.10;99.90;;;22.33;49.45;95851.28;10474165;28;1957;-79
2021/06/25 14:03:45;;;;;;;;;;;23.80;99.90;;;21.77;52.24;95836.63;10477524;28;2260;-82
2021/06/25 14:08:47;;;;;;;;;;;23.00;99.90;;;21.82;53.49;95833.66;10485424;28;2276;-80
2021/06/25 14:13:51;;;;;;;;;;;22.80;99.90;;;21.23;56.38;95840.34;10486438;28;2237;-82
2021/06/25 14:18:54;;;;;;;;;;;22.50;99.90;;;21.23;57.43;95842.28;10467533;28;1890;-78
2021/06/25 14:23:57;;;;;;;;;;;22.10;99.90;;;21.78;54.24;95836.28;10482562;28;1880;-81
2021/06/25 14:28:59;;;;;;;;;;;22.30;99.90;;;22.24;52.36;95847.84;10481934;28;2027;-79
2021/06/25 14:34:02;;;;;;;;;;;23.00;99.90;;;21.86;53.89;95853.72;10463927;28;2131;-81
2021/06/25 14:39:05;;;;;;;;;;;22.80;99.90;;;21.70;55.22;95861.03;10484120;28;2398;-82
2021/06/25 14:44:26;;;;;;;;;;;22.70;99.90;;;21.98;53.98;95866.59;10465962;28;2130;-83
2021/06/25 14:49:29;;;;;;;;;;;22.80;99.90;;;21.16;55.57;95874.84;10470931;28;2254;-79
2021/06/25 14:54:31;;;;;;;;;;;22.40;99.90;;;21.54;54.55;95874.59;10471206;28;2064;-81
2021/06/25 14:59:34;;;;;;;;;;;22.30;99.90;;;21.87;53.40;95882.66;10468791;28;2039;-81
2021/06/25 15:04:37;;;;;;;;;;;22.40;99.90;;;22.29;52.98;95876.94;10456783;28;2041;-80
2021/06/25 15:09:40;;;;;;;;;;;22.70;99.90;;;21.73;53.64;95882.22;10473278;28;1877;-79
2021/06/25 15:14:45;;;;;;;;;;;22.70;99.90;;;20.69;55.94;95875.19;10455496;28;2071;-82
2021/06/25 15:19:48;;;;;;;;;;;22.00;99.90;;;20.60;57.39;95879.91;10462853;28;1952;-82
2021/06/25 15:24:51;;;;;;;;;;;21.70;99.90;;;20.30;59.53;95877.25;10469136;28;1895;-79
2021/06/25 15:29:57;;;;;;;;;;;21.40;99.90;;;20.33;59.75;95873.84;10466990;28;1872;-82
2021/06/25 15:35:09;;;;;;;;;;;21.40;99.90;;;20.44;58.99;95860.59;10479334;28;1761;-79
2021/06/25 15:40:12;;;;;;;;;;;21.30;99.90;;;20.74;58.13;95869.47;10475161;28;2338;-79
2021/06/25 15:45:16;;;;;;;;;;;21.50;99.90;;;20.85;57.99;95864.41;10466266;28;2058;-80
2021/06/25 15:50:19;;;;;;;;;;;21.50;99.90;;;20.88;56.13;95870.00;10457484;28;2434;-80
2021/06/25 15:55:22;;;;;;;;;;;21.70;99.90;;;20.96;56.23;95871.84;10452863;28;2100;-81
2021/06/25 16:00:24;;;;;;;;;;;21.80;99.90;;;20.95;56.22;95864.78;10459019;28;2086;-82
2021/06/25 16:05:28;;;;;;;;;;;21.80;99.90;;;20.95;57.39;95861.25;10457354;28;2033;-80
2021/06/25 16:10:35;;;;;;;;;;;21.80;99.90;;;20.46;59.48;95866.53;10468277;28;2064;-79
2021/06/25 16:15:42;;;;;;;;;;;21.50;99.90;;;20.14;60.32;95870.78;10463836;28;1814;-80
2021/06/25 16:20:45;;;;;;;;;;;21.30;99.90;;;19.94;62.14;95881.34;10460310;28;2117;-83
2021/06/25 16:25:47;;;;;;;;;;;21.00;99.90;;;19.82;62.55;95883.97;10468006;28;1892;-80
2021/06/25 16:30:51;;;;;;;;;;;20.70;99.90;;;19.83;62.25;95869.22;10464093;28;1962;-81
2021/06/25 16:35:53;;;;;;;;;;;20.60;99.90;;;20.07;62.59;95863.13;10490736;28;2343;-81
2021/06/25 16:40:56;;;;;;;;;;;20.80;99.90;;;20.33;61.75;95862.91;10484915;28;2249;-80
2021/06/25 16:45:59;;;;;;;;;;;21.00;99.90;;;20.38;61.95;95872.84;10481748;28;1920;-78
2021/06/25 16:51:02;;;;;;;;;;;21.00;99.90;;;21.02;58.05;95859.56;10457281;28;2036;-79
2021/06/25 16:56:04;;;;;;;;;;;21.30;99.90;;;20.83;59.41;95862.03;10465796;28;1957;-80
2021/06/25 17:01:07;;;;;;;;;;;21.60;99.90;;;20.56;58.80;95857.16;10468275;28;2058;-81
2021/06/25 17:06:10;;;;;;;;;;;21.50;99.90;;;19.83;61.12;95869.22;10463593;28;1923;-82
2021/06/25 17:11:13;;;;;;;;;;;21.30;99.90;;;19.87;62.92;95864.69;10469938;28;2002;-80
2021/06/25 17:16:15;;;;;;;;;;;20.90;99.90;;;20.04;61.00;95871.16;10461928;28;2096;-80
2021/06/25 17:21:18;;;;;;;;;;;20.90;99.90;;;19.72;64.22;95873.44;10460427;28;1977;-80
2021/06/25 17:26:21;;;;;;;;;;;20.80;99.90;;;19.44;66.05;95884.78;10461708;28;2076;-82
2021/06/25 17:31:24;;;;;;;;;;;20.60;99.90;;;19.42;65.40;95886.25;10444065;28;2095;-79
2021/06/25 17:36:26;;;;;;;;;;;20.40;99.90;;;19.53;63.75;95886.66;10470054;28;1997;-78
2021/06/25 17:41:29;;;;;;;;;;;20.40;99.90;;;19.37;63.99;95895.38;10470736;28;2052;-82
2021/06/25 17:46:32;;;;;;;;;;;20.30;99.90;;;18.98;65.83;95898.41;10468133;28;1931;-80
2021/06/25 17:51:35;;;;;;;;;;;20.10;99.90;;;18.56;67.69;95909.78;10467531;28;2057;-82
2021/06/25 17:56:37;;;;;;;;;;;19.80;99.90;;;18.42;67.42;95908.34;10477949;28;2105;-79
2021/06/25 18:01:40;;;;;;;;;;;19.50;99.90;;;18.14;68.53;95914.13;10463236;28;2316;-79
2021/06/25 18:06:43;;;;;;;;;;;19.30;99.90;;;18.03;68.49;95921.75;10457116;28;2322;-80
2021/06/25 18:11:45;;;;;;;;;;;19.10;99.90;;;17.74;70.26;95916.88;10443548;28;2063;-81
2021/06/25 18:16:48;;;;;;;;;;;18.90;99.90;;;17.72;69.84;95934.63;10461166;28;1903;-80
2021/06/25 18:21:51;;;;;;;;;;;18.80;99.90;;;17.65;70.11;95935.06;10459943;28;2127;-79
2021/06/25 18:26:53;;;;;;;;;;;18.70;99.90;;;17.42;71.52;95931.59;10451628;28;2080;-80
2021/06/25 18:31:56;;;;;;;;;;;18.60;99.90;;;17.29;72.73;95927.06;10464189;28;1916;-81
2021/06/25 18:36:59;;;;;;;;;;;18.50;99.90;;;17.22;72.55;95937.59;10462605;28;1883;-78
2021/06/25 18:42:04;;;;;;;;;;;18.30;99.90;;;17.14;73.49;95935.63;10462480;28;2064;-78
2021/06/25 18:47:07;;;;;;;;;;;18.30;99.90;;;17.05;74.56;95949.19;10460227;28;1925;-79
2021/06/25 18:52:09;;;;;;;;;;;18.20;99.90;;;16.97;75.00;95936.31;10469178;28;2320;-81
2021/06/25 18:57:12;;;;;;;;;;;18.10;99.90;;;16.91;75.62;95941.06;10453990;28;2296;-79
2021/06/25 19:02:15;;;;;;;;;;;18.10;99.90;;;16.89;76.46;95951.47;10437895;28;2080;-81
2021/06/25 19:07:18;;;;;;;;;;;18.00;99.90;;;16.87;77.08;95959.13;10458666;28;2053;-81
2021/06/25 19:12:20;;;;;;;;;;;18.00;99.90;;;16.91;77.63;95970.16;10466145;28;1983;-79
2021/06/25 19:17:23;;;;;;;;;;;18.00;99.90;;;16.89;78.17;95981.31;10465848;28;2049;-79
2021/06/25 19:22:26;;;;;;;;;;;17.90;99.90;;;16.81;78.93;95989.41;10466957;28;2061;-80
2021/06/25 19:27:28;;;;;;;;;;;17.90;99.90;;;16.78;79.84;95984.59;10454913;28;2120;-80
2021/06/25 19:32:34;;;;;;;;;;;17.90;99.90;;;16.71;81.12;95976.88;10440208;28;2004;-81
2021/06/25 19:37:37;;;;;;;;;;;17.80;99.90;;;16.60;81.75;95987.13;10458997;28;2090;-82
2021/06/25 19:42:40;;;;;;;;;;;17.70;99.90;;;16.54;82.30;95982.94;10454060;28;2048;-80
2021/06/25 19:47:42;;;;;;;;;;;17.70;99.90;;;16.44;83.36;95989.38;10467537;28;1940;-79
2021/06/25 19:52:45;;;;;;;;;;;17.60;99.90;;;16.38;84.08;95989.81;10472052;28;1994;-79
2021/06/25 19:57:48;;;;;;;;;;;17.50;99.90;;;16.30;84.00;96004.09;10452362;28;2337;-79
2021/06/25 20:02:50;;;;;;;;;;;17.50;99.90;;;16.27;84.86;96000.06;10477910;28;2049;-78
2021/06/25 20:07:53;;;;;;;;;;;17.80;99.90;;;16.32;85.21;95999.16;10466950;28;2007;-78
2021/06/25 20:12:57;;;;;;;;;;;17.40;99.90;;;16.27;84.99;95994.66;10432277;28;1912;-79
2021/06/25 20:18:01;;;;;;;;;;;17.40;99.90;;;16.21;85.07;95998.56;10462608;28;2045;-79
2021/06/25 20:23:04;;;;;;;;;;;17.40;99.90;;;16.21;85.34;96006.72;10466156;28;1915;-80
2021/06/25 20:28:07;;;;;;;;;;;17.30;99.90;;;16.19;85.92;96004.31;10441897;28;2089;-79
2021/06/25 20:33:09;;;;;;;;;;;17.30;99.90;;;16.15;85.72;96006.00;10487580;28;1549;-79
2021/06/25 20:38:12;;;;;;;;;;;17.30;99.90;;;16.10;85.98;96006.13;10453224;28;2397;-80
2021/06/25 20:43:15;;;;;;;;;;;17.20;99.90;;;16.12;85.91;96003.91;10446867;28;2079;-78
2021/06/25 20:48:18;;;;;;;;;;;17.20;99.90;;;16.18;85.64;96008.13;10468327;28;2152;-81
2021/06/25 20:53:20;;;;;;;;;;;17.20;99.90;;;16.24;85.33;95999.88;10461315;28;2025;-80
2021/06/25 20:58:23;;;;;;;;;;;17.30;99.90;;;16.20;85.42;96003.19;10463029;28;1987;-80
2021/06/25 21:03:26;;;;;;;;;;;17.30;99.90;;;16.15;85.43;96003.28;10460297;28;1872;-79
2021/06/25 21:08:28;;;;;;;;;;;17.30;99.90;;;16.17;85.44;96017.38;10454702;28;2108;-79
2021/06/25 21:13:32;;;;;;;;;;;17.30;99.90;;;16.12;85.31;96020.19;10477426;28;1955;-80
2021/06/25 21:18:35;;;;;;;;;;;17.20;99.90;;;16.09;85.41;96025.41;10467007;28;2038;-79
2021/06/25 21:23:38;;;;;;;;;;;17.10;99.90;;;16.06;86.27;96026.00;10472746;28;2127;-77
2021/06/25 21:28:40;;;;;;;;;;;17.10;99.90;;;16.06;85.55;96018.69;10472293;28;2069;-80
2021/06/25 21:33:44;;;;;;;;;;;17.20;99.90;;;15.97;86.66;96028.63;10449477;28;2126;-78
2021/06/25 21:38:48;;;;;;;;;;;17.10;99.90;;;16.07;86.33;96031.13;10455354;28;2206;-80
2021/06/25 21:43:51;;;;;;;;;;;17.10;99.90;;;16.21;85.42;96022.97;10452964;28;2146;-81
2021/06/25 21:48:54;;;;;;;;;;;17.10;99.90;;;16.24;85.00;96027.00;10440463;28;2183;-81
2021/06/25 21:53:57;;;;;;;;;;;17.10;99.90;;;16.21;84.90;96021.06;10433153;28;2075;-81
2021/06/25 21:58:59;;;;;;;;;;;17.10;99.90;;;16.31;85.44;96022.78;10456055;28;2138;-79
2021/06/25 22:04:02;;;;;;;;;;;17.10;99.90;;;16.34;84.98;96026.78;10454623;28;2186;-80
2021/06/25 22:09:05;;;;;;;;;;;17.30;99.90;;;16.36;85.67;96030.81;10461900;28;2176;-80
2021/06/25 22:14:07;;;;;;;;;;;17.40;99.90;;;16.37;84.94;96029.69;10476475;28;2022;-79
2021/06/25 22:19:10;;;;;;;;;;;17.30;99.90;;;16.38;85.34;96025.06;10478704;28;2091;-79
2021/06/25 22:24:13;;;;;;;;;;;17.30;99.90;;;16.34;85.84;96024.06;10447868;28;2123;-80
2021/06/25 22:29:15;;;;;;;;;;;17.30;99.90;;;16.39;85.40;96024.75;10461996;28;2036;-81
2021/06/25 22:34:18;;;;;;;;;;;17.40;99.90;;;16.34;85.73;96029.50;10454460;28;2175;-81
2021/06/25 22:39:21;;;;;;;;;;;17.30;99.90;;;16.34;85.67;96022.16;10453420;28;2270;-81
2021/06/25 22:44:23;;;;;;;;;;;17.30;99.90;;;16.26;86.29;96017.44;10456422;28;2086;-80
2021/06/25 22:49:26;;;;;;;;;;;17.30;99.90;;;16.21;86.36;96023.78;10461937;28;2171;-80
2021/06/25 22:54:29;;;;;;;;;;;17.20;99.90;;;16.21;86.31;96023.78;10463543;28;2018;-81
2021/06/25 22:59:33;;;;;;;;;;;17.20;99.90;;;16.27;86.02;96026.38;10486041;28;2278;-78
2021/06/25 23:04:36;;;;;;;;;;;17.20;99.90;;;16.31;86.12;96030.13;10471574;28;1819;-78
2021/06/25 23:09:38;;;;;;;;;;;17.20;99.90;;;16.16;86.47;96023.91;10476667;28;2289;-80
2021/06/25 23:14:41;;;;;;;;;;;17.20;99.90;;;16.08;87.67;96030.03;10439883;28;2186;-81
2021/06/25 23:19:44;;;;;;;;;;;17.10;99.90;;;16.02;88.16;96023.09;10458251;28;2118;-80
2021/06/25 23:24:47;;;;;;;;;;;17.10;99.90;;;15.90;88.88;96018.19;10461992;28;2123;-80
2021/06/25 23:29:49;;;;;;;;;;;17.00;99.90;;;15.82;89.85;96027.00;10465528;28;2449;-77